sensor_id;sensor_type;location;lat;lon;timestamp;P1;durP1;ratioP1;P2;durP2;ratioP2
55813;SDS011;65494;42.818;0.404;2022-12-20T05:40:34;1.00;;;0.40;;
55813;SDS011;65494;42.818;0.404;2022-12-20T06:14:12;8.00;;;3.35;;
55813;SDS011;65494;42.818;0.404;2022-12-20T06:16:38;13.95;;;5.38;;
55813;SDS011;65494;42.818;0.404;2022-12-20T06:19:04;6.90;;;2.60;;
55813;SDS011;65494;42.818;0.404;2022-12-20T06:21:30;4.65;;;1.75;;
55813;SDS011;65494;42.818;0.404;2022-12-20T06:23:56;0.40;;;0.40;;
55813;SDS011;65494;42.818;0.404;2022-12-20T06:26:22;2.53;;;0.85;;
55813;SDS011;65494;42.818;0.404;2022-12-20T06:28:48;9.13;;;3.50;;
55813;SDS011;65494;42.818;0.404;2022-12-20T06:31:18;4.90;;;1.35;;
55813;SDS011;65494;42.818;0.404;2022-12-20T06:33:44;1.88;;;0.80;;
55813;SDS011;65494;42.818;0.404;2022-12-20T06:36:10;1.85;;;0.60;;
55813;SDS011;65494;42.818;0.404;2022-12-20T06:38:37;0.22;;;0.20;;
55813;SDS011;65494;42.818;0.404;2022-12-20T06:41:03;1.58;;;0.68;;
55813;SDS011;65494;42.818;0.404;2022-12-20T06:43:29;4.32;;;0.70;;
55813;SDS011;65494;42.818;0.404;2022-12-20T06:45:55;1.75;;;0.50;;
55813;SDS011;65494;42.818;0.404;2022-12-20T06:48:21;0.68;;;0.50;;
55813;SDS011;65494;42.818;0.404;2022-12-20T06:50:48;0.82;;;0.50;;
55813;SDS011;65494;42.818;0.404;2022-12-20T06:53:14;1.52;;;0.30;;
55813;SDS011;65494;42.818;0.404;2022-12-20T06:55:40;0.30;;;0.30;;
55813;SDS011;65494;42.818;0.404;2022-12-20T06:58:06;1.25;;;0.30;;
55813;SDS011;65494;42.818;0.404;2022-12-20T07:00:32;0.60;;;0.30;;
55813;SDS011;65494;42.818;0.404;2022-12-20T07:02:58;1.33;;;0.47;;
55813;SDS011;65494;42.818;0.404;2022-12-20T07:05:24;0.75;;;0.50;;
55813;SDS011;65494;42.818;0.404;2022-12-20T07:07:51;4.05;;;0.38;;
55813;SDS011;65494;42.818;0.404;2022-12-20T07:10:17;7.78;;;0.80;;
55813;SDS011;65494;42.818;0.404;2022-12-20T07:12:43;1.77;;;0.70;;
55813;SDS011;65494;42.818;0.404;2022-12-20T07:15:09;0.45;;;0.35;;
55813;SDS011;65494;42.818;0.404;2022-12-20T07:17:36;0.40;;;0.40;;
55813;SDS011;65494;42.818;0.404;2022-12-20T07:20:02;0.38;;;0.30;;
55813;SDS011;65494;42.818;0.404;2022-12-20T07:22:28;1.10;;;0.40;;
55813;SDS011;65494;42.818;0.404;2022-12-20T07:24:54;4.93;;;0.95;;
55813;SDS011;65494;42.818;0.404;2022-12-20T07:27:20;4.90;;;1.13;;
55813;SDS011;65494;42.818;0.404;2022-12-20T07:29:46;3.17;;;1.52;;
55813;SDS011;65494;42.818;0.404;2022-12-20T07:32:12;2.08;;;1.00;;
55813;SDS011;65494;42.818;0.404;2022-12-20T07:34:38;1.90;;;0.77;;
55813;SDS011;65494;42.818;0.404;2022-12-20T07:37:04;6.97;;;1.00;;
55813;SDS011;65494;42.818;0.404;2022-12-20T07:39:32;3.10;;;0.80;;
55813;SDS011;65494;42.818;0.404;2022-12-20T07:41:58;1.73;;;1.08;;
55813;SDS011;65494;42.818;0.404;2022-12-20T07:44:24;0.80;;;0.50;;
55813;SDS011;65494;42.818;0.404;2022-12-20T07:46:50;3.90;;;0.65;;
55813;SDS011;65494;42.818;0.404;2022-12-20T07:49:16;4.45;;;0.93;;
55813;SDS011;65494;42.818;0.404;2022-12-20T07:51:44;2.00;;;0.65;;
55813;SDS011;65494;42.818;0.404;2022-12-20T07:54:12;0.50;;;0.50;;
55813;SDS011;65494;42.818;0.404;2022-12-20T07:56:41;2.38;;;1.00;;
55813;SDS011;65494;42.818;0.404;2022-12-20T07:59:09;1.58;;;0.70;;
55813;SDS011;65494;42.818;0.404;2022-12-20T08:01:36;2.08;;;0.98;;
55813;SDS011;65494;42.818;0.404;2022-12-20T08:04:04;5.60;;;2.08;;
55813;SDS011;65494;42.818;0.404;2022-12-20T08:06:31;2.85;;;0.95;;
55813;SDS011;65494;42.818;0.404;2022-12-20T08:08:59;0.95;;;0.60;;
55813;SDS011;65494;42.818;0.404;2022-12-20T08:11:27;1.27;;;0.70;;
55813;SDS011;65494;42.818;0.404;2022-12-20T08:13:55;1.50;;;0.60;;
55813;SDS011;65494;42.818;0.404;2022-12-20T08:16:21;1.70;;;0.90;;
55813;SDS011;65494;42.818;0.404;2022-12-20T08:18:47;2.63;;;0.90;;
55813;SDS011;65494;42.818;0.404;2022-12-20T08:21:13;6.22;;;1.20;;
55813;SDS011;65494;42.818;0.404;2022-12-20T08:23:39;1.60;;;0.98;;
55813;SDS011;65494;42.818;0.404;2022-12-20T08:26:05;5.38;;;1.13;;
55813;SDS011;65494;42.818;0.404;2022-12-20T08:28:32;6.05;;;1.45;;
55813;SDS011;65494;42.818;0.404;2022-12-20T08:31:05;4.80;;;1.20;;
55813;SDS011;65494;42.818;0.404;2022-12-20T08:33:32;4.95;;;0.98;;
55813;SDS011;65494;42.818;0.404;2022-12-20T08:35:59;3.22;;;1.45;;
55813;SDS011;65494;42.818;0.404;2022-12-20T08:38:27;5.07;;;1.63;;
55813;SDS011;65494;42.818;0.404;2022-12-20T08:40:53;3.80;;;1.63;;
55813;SDS011;65494;42.818;0.404;2022-12-20T08:43:19;7.65;;;2.80;;
55813;SDS011;65494;42.818;0.404;2022-12-20T08:45:50;6.15;;;2.28;;
55813;SDS011;65494;42.818;0.404;2022-12-20T08:48:16;13.90;;;4.65;;
55813;SDS011;65494;42.818;0.404;2022-12-20T08:50:42;22.30;;;9.35;;
55813;SDS011;65494;42.818;0.404;2022-12-20T08:53:09;18.05;;;4.57;;
55813;SDS011;65494;42.818;0.404;2022-12-20T08:55:35;5.28;;;1.50;;
55813;SDS011;65494;42.818;0.404;2022-12-20T08:58:04;6.15;;;2.83;;
55813;SDS011;65494;42.818;0.404;2022-12-20T09:00:57;2.03;;;1.23;;
55813;SDS011;65494;42.818;0.404;2022-12-20T09:09:31;1.50;;;1.00;;
55813;SDS011;65494;42.818;0.404;2022-12-20T09:12:05;3.03;;;1.33;;
55813;SDS011;65494;42.818;0.404;2022-12-20T09:14:33;2.63;;;1.17;;
55813;SDS011;65494;42.818;0.404;2022-12-20T09:16:59;2.55;;;1.27;;
55813;SDS011;65494;42.818;0.404;2022-12-20T09:19:31;4.40;;;1.00;;
55813;SDS011;65494;42.818;0.404;2022-12-20T09:22:09;3.00;;;0.70;;
55813;SDS011;65494;42.818;0.404;2022-12-20T09:24:38;0.57;;;0.47;;
55813;SDS011;65494;42.818;0.404;2022-12-20T09:27:09;1.08;;;0.43;;
55813;SDS011;65494;42.818;0.404;2022-12-20T09:29:35;2.60;;;1.00;;
55813;SDS011;65494;42.818;0.404;2022-12-20T09:32:02;3.22;;;1.40;;
55813;SDS011;65494;42.818;0.404;2022-12-20T09:34:28;4.25;;;1.10;;
55813;SDS011;65494;42.818;0.404;2022-12-20T09:36:54;1.90;;;0.82;;
55813;SDS011;65494;42.818;0.404;2022-12-20T09:39:20;1.48;;;0.80;;
55813;SDS011;65494;42.818;0.404;2022-12-20T09:41:46;1.33;;;0.65;;
55813;SDS011;65494;42.818;0.404;2022-12-20T09:46:41;0.30;;;0.30;;
55813;SDS011;65494;42.818;0.404;2022-12-20T09:49:10;1.38;;;0.30;;
55813;SDS011;65494;42.818;0.404;2022-12-20T09:54:32;0.60;;;0.13;;
55813;SDS011;65494;42.818;0.404;2022-12-20T09:59:28;0.15;;;0.10;;
55813;SDS011;65494;42.818;0.404;2022-12-20T10:01:54;0.20;;;0.20;;
55813;SDS011;65494;42.818;0.404;2022-12-20T10:14:19;0.30;;;0.20;;
55813;SDS011;65494;42.818;0.404;2022-12-20T10:16:49;0.15;;;0.15;;
55813;SDS011;65494;42.818;0.404;2022-12-20T10:19:24;1.17;;;0.50;;
55813;SDS011;65494;42.818;0.404;2022-12-20T10:22:06;0.68;;;0.32;;
55813;SDS011;65494;42.818;0.404;2022-12-20T10:24:35;1.42;;;0.30;;
55813;SDS011;65494;42.818;0.404;2022-12-20T10:27:06;0.52;;;0.20;;
55813;SDS011;65494;42.818;0.404;2022-12-20T10:29:35;2.28;;;0.25;;
55813;SDS011;65494;42.818;0.404;2022-12-20T10:32:04;0.30;;;0.30;;
55813;SDS011;65494;42.818;0.404;2022-12-20T10:34:35;0.25;;;0.20;;
55813;SDS011;65494;42.818;0.404;2022-12-20T10:37:13;0.10;;;0.10;;
55813;SDS011;65494;42.818;0.404;2022-12-20T10:39:41;0.28;;;0.20;;
55813;SDS011;65494;42.818;0.404;2022-12-20T10:42:52;0.10;;;0.10;;
55813;SDS011;65494;42.818;0.404;2022-12-20T10:45:01;0.10;;;0.10;;
55813;SDS011;65494;42.818;0.404;2022-12-20T10:47:37;0.52;;;0.20;;
55813;SDS011;65494;42.818;0.404;2022-12-20T10:50:11;0.93;;;0.10;;
55813;SDS011;65494;42.818;0.404;2022-12-20T10:52:38;0.50;;;0.30;;
55813;SDS011;65494;42.818;0.404;2022-12-20T10:55:23;0.20;;;0.20;;
55813;SDS011;65494;42.818;0.404;2022-12-20T10:57:51;0.20;;;0.10;;
55813;SDS011;65494;42.818;0.404;2022-12-20T11:03:09;0.95;;;0.22;;
55813;SDS011;65494;42.818;0.404;2022-12-20T11:05:36;0.25;;;0.20;;
55813;SDS011;65494;42.818;0.404;2022-12-20T11:08:07;0.10;;;0.10;;
55813;SDS011;65494;42.818;0.404;2022-12-20T11:10:36;0.77;;;0.10;;
55813;SDS011;65494;42.818;0.404;2022-12-20T11:13:42;0.20;;;0.20;;
55813;SDS011;65494;42.818;0.404;2022-12-20T11:24:40;0.20;;;0.20;;
55813;SDS011;65494;42.818;0.404;2022-12-20T11:32:39;2.58;;;0.30;;
55813;SDS011;65494;42.818;0.404;2022-12-20T11:37:41;0.17;;;0.17;;
55813;SDS011;65494;42.818;0.404;2022-12-20T11:40:25;1.77;;;0.20;;
55813;SDS011;65494;42.818;0.404;2022-12-20T11:43:55;0.40;;;0.20;;
55813;SDS011;65494;42.818;0.404;2022-12-20T11:46:10;0.10;;;0.10;;
55813;SDS011;65494;42.818;0.404;2022-12-20T11:56:00;0.30;;;0.20;;
55813;SDS011;65494;42.818;0.404;2022-12-20T11:58:29;1.02;;;0.10;;
55813;SDS011;65494;42.818;0.404;2022-12-20T12:01:03;0.20;;;0.20;;
55813;SDS011;65494;42.818;0.404;2022-12-20T12:03:38;0.10;;;0.10;;
55813;SDS011;65494;42.818;0.404;2022-12-20T12:06:06;0.30;;;0.20;;
55813;SDS011;65494;42.818;0.404;2022-12-20T12:11:31;0.50;;;0.13;;
55813;SDS011;65494;42.818;0.404;2022-12-20T12:14:04;0.47;;;0.20;;
55813;SDS011;65494;42.818;0.404;2022-12-20T12:16:34;0.40;;;0.10;;
55813;SDS011;65494;42.818;0.404;2022-12-20T12:19:02;0.20;;;0.20;;
55813;SDS011;65494;42.818;0.404;2022-12-20T12:24:34;0.10;;;0.10;;
55813;SDS011;65494;42.818;0.404;2022-12-20T12:27:03;0.20;;;0.20;;
55813;SDS011;65494;42.818;0.404;2022-12-20T12:29:29;0.68;;;0.20;;
55813;SDS011;65494;42.818;0.404;2022-12-20T12:32:17;0.20;;;0.20;;
55813;SDS011;65494;42.818;0.404;2022-12-20T12:35:08;0.15;;;0.15;;
55813;SDS011;65494;42.818;0.404;2022-12-20T12:40:31;0.17;;;0.10;;
55813;SDS011;65494;42.818;0.404;2022-12-20T12:46:07;0.20;;;0.20;;
55813;SDS011;65494;42.818;0.404;2022-12-20T12:48:42;0.25;;;0.25;;
55813;SDS011;65494;42.818;0.404;2022-12-20T12:51:22;0.47;;;0.20;;
55813;SDS011;65494;42.818;0.404;2022-12-20T12:57:31;2.28;;;0.20;;
55813;SDS011;65494;42.818;0.404;2022-12-20T13:12:56;0.28;;;0.28;;
55813;SDS011;65494;42.818;0.404;2022-12-20T13:20:20;0.20;;;0.20;;
55813;SDS011;65494;42.818;0.404;2022-12-20T13:25:32;1.60;;;0.47;;
55813;SDS011;65494;42.818;0.404;2022-12-20T13:36:15;1.38;;;0.20;;
55813;SDS011;65494;42.818;0.404;2022-12-20T13:38:51;0.35;;;0.20;;
55813;SDS011;65494;42.818;0.404;2022-12-20T13:41:37;0.10;;;0.10;;
55813;SDS011;65494;42.818;0.404;2022-12-20T13:47:00;1.40;;;0.40;;
55813;SDS011;65494;42.818;0.404;2022-12-20T13:49:35;0.17;;;0.15;;
55813;SDS011;65494;42.818;0.404;2022-12-20T13:54:47;1.02;;;0.30;;
55813;SDS011;65494;42.818;0.404;2022-12-20T13:57:15;0.20;;;0.20;;
55813;SDS011;65494;42.818;0.404;2022-12-20T13:59:45;0.38;;;0.30;;
55813;SDS011;65494;42.818;0.404;2022-12-20T14:02:32;0.63;;;0.38;;
55813;SDS011;65494;42.818;0.404;2022-12-20T14:07:41;0.20;;;0.20;;
55813;SDS011;65494;42.818;0.404;2022-12-20T14:10:19;0.40;;;0.20;;
55813;SDS011;65494;42.818;0.404;2022-12-20T14:12:46;0.57;;;0.20;;
55813;SDS011;65494;42.818;0.404;2022-12-20T14:15:32;0.73;;;0.20;;
55813;SDS011;65494;42.818;0.404;2022-12-20T14:18:22;0.45;;;0.22;;
55813;SDS011;65494;42.818;0.404;2022-12-20T14:21:00;0.95;;;0.40;;
55813;SDS011;65494;42.818;0.404;2022-12-20T14:23:47;0.20;;;0.20;;
55813;SDS011;65494;42.818;0.404;2022-12-20T14:26:43;0.20;;;0.20;;
55813;SDS011;65494;42.818;0.404;2022-12-20T14:29:17;0.47;;;0.20;;
55813;SDS011;65494;42.818;0.404;2022-12-20T14:31:44;1.52;;;0.10;;
55813;SDS011;65494;42.818;0.404;2022-12-20T14:36:36;0.60;;;0.30;;
55813;SDS011;65494;42.818;0.404;2022-12-20T14:41:56;0.38;;;0.32;;
55813;SDS011;65494;42.818;0.404;2022-12-20T14:44:23;0.20;;;0.20;;
55813;SDS011;65494;42.818;0.404;2022-12-20T14:46:52;0.60;;;0.20;;
55813;SDS011;65494;42.818;0.404;2022-12-20T14:49:21;0.55;;;0.20;;
55813;SDS011;65494;42.818;0.404;2022-12-20T14:54:44;0.50;;;0.40;;
55813;SDS011;65494;42.818;0.404;2022-12-20T15:03:09;0.30;;;0.30;;
55813;SDS011;65494;42.818;0.404;2022-12-20T15:11:20;0.30;;;0.30;;
55813;SDS011;65494;42.818;0.404;2022-12-20T15:20:12;2.03;;;0.40;;
55813;SDS011;65494;42.818;0.404;2022-12-20T15:23:00;0.20;;;0.20;;
55813;SDS011;65494;42.818;0.404;2022-12-20T15:25:31;0.20;;;0.20;;
55813;SDS011;65494;42.818;0.404;2022-12-20T15:28:00;5.18;;;0.43;;
55813;SDS011;65494;42.818;0.404;2022-12-20T15:33:56;0.50;;;0.30;;
55813;SDS011;65494;42.818;0.404;2022-12-20T15:43:14;2.38;;;0.50;;
55813;SDS011;65494;42.818;0.404;2022-12-20T15:58:02;21.70;;;8.95;;
55813;SDS011;65494;42.818;0.404;2022-12-20T16:07:04;0.63;;;0.30;;
55813;SDS011;65494;42.818;0.404;2022-12-20T16:12:58;1.50;;;0.50;;
55813;SDS011;65494;42.818;0.404;2022-12-20T16:21:21;2.33;;;0.65;;
55813;SDS011;65494;42.818;0.404;2022-12-20T16:27:28;1.50;;;0.43;;
55813;SDS011;65494;42.818;0.404;2022-12-20T16:30:34;0.30;;;0.30;;
55813;SDS011;65494;42.818;0.404;2022-12-20T16:36:54;1.15;;;0.55;;
55813;SDS011;65494;42.818;0.404;2022-12-20T16:42:23;2.00;;;0.77;;
55813;SDS011;65494;42.818;0.404;2022-12-20T16:45:24;3.92;;;0.75;;
55813;SDS011;65494;42.818;0.404;2022-12-20T16:48:40;1.52;;;0.47;;
55813;SDS011;65494;42.818;0.404;2022-12-20T16:54:42;8.20;;;3.92;;
55813;SDS011;65494;42.818;0.404;2022-12-20T16:57:13;6.53;;;3.45;;
55813;SDS011;65494;42.818;0.404;2022-12-20T16:59:52;2.40;;;0.70;;
55813;SDS011;65494;42.818;0.404;2022-12-20T17:02:43;6.75;;;2.50;;
55813;SDS011;65494;42.818;0.404;2022-12-20T17:08:37;2.67;;;1.20;;
55813;SDS011;65494;42.818;0.404;2022-12-20T17:11:13;2.78;;;1.60;;
55813;SDS011;65494;42.818;0.404;2022-12-20T17:13:57;5.30;;;2.10;;
55813;SDS011;65494;42.818;0.404;2022-12-20T17:16:38;14.38;;;5.45;;
55813;SDS011;65494;42.818;0.404;2022-12-20T17:19:05;8.18;;;2.20;;
55813;SDS011;65494;42.818;0.404;2022-12-20T17:21:36;3.63;;;1.55;;
55813;SDS011;65494;42.818;0.404;2022-12-20T17:24:19;2.42;;;1.10;;
55813;SDS011;65494;42.818;0.404;2022-12-20T17:26:47;13.48;;;6.97;;
55813;SDS011;65494;42.818;0.404;2022-12-20T17:29:36;5.00;;;1.83;;
55813;SDS011;65494;42.818;0.404;2022-12-20T17:32:02;3.60;;;1.65;;
55813;SDS011;65494;42.818;0.404;2022-12-20T17:34:48;10.52;;;6.20;;
55813;SDS011;65494;42.818;0.404;2022-12-20T17:37:15;2.80;;;1.65;;
55813;SDS011;65494;42.818;0.404;2022-12-20T17:39:42;3.83;;;1.45;;
55813;SDS011;65494;42.818;0.404;2022-12-20T17:42:10;5.60;;;1.38;;
55813;SDS011;65494;42.818;0.404;2022-12-20T17:44:37;4.05;;;1.65;;
55813;SDS011;65494;42.818;0.404;2022-12-20T17:47:03;6.85;;;1.88;;
55813;SDS011;65494;42.818;0.404;2022-12-20T17:49:38;10.93;;;4.40;;
55813;SDS011;65494;42.818;0.404;2022-12-20T17:52:04;5.25;;;1.90;;
55813;SDS011;65494;42.818;0.404;2022-12-20T17:54:30;6.32;;;2.60;;
55813;SDS011;65494;42.818;0.404;2022-12-20T17:56:56;11.50;;;4.07;;
55813;SDS011;65494;42.818;0.404;2022-12-20T17:59:22;10.85;;;4.20;;
55813;SDS011;65494;42.818;0.404;2022-12-20T18:01:50;6.90;;;2.50;;
55813;SDS011;65494;42.818;0.404;2022-12-20T18:04:21;9.43;;;4.40;;
55813;SDS011;65494;42.818;0.404;2022-12-20T18:06:47;12.75;;;5.60;;
55813;SDS011;65494;42.818;0.404;2022-12-20T18:09:14;23.25;;;12.60;;
55813;SDS011;65494;42.818;0.404;2022-12-20T18:11:59;9.18;;;4.25;;
55813;SDS011;65494;42.818;0.404;2022-12-20T18:14:25;5.15;;;2.17;;
55813;SDS011;65494;42.818;0.404;2022-12-20T18:16:51;10.70;;;5.32;;
55813;SDS011;65494;42.818;0.404;2022-12-20T18:19:37;8.38;;;4.70;;
55813;SDS011;65494;42.818;0.404;2022-12-20T18:22:23;9.88;;;4.03;;
55813;SDS011;65494;42.818;0.404;2022-12-20T18:24:49;22.20;;;8.18;;
55813;SDS011;65494;42.818;0.404;2022-12-20T18:27:15;10.50;;;3.70;;
55813;SDS011;65494;42.818;0.404;2022-12-20T18:29:41;8.70;;;3.50;;
55813;SDS011;65494;42.818;0.404;2022-12-20T18:32:08;17.88;;;6.40;;
55813;SDS011;65494;42.818;0.404;2022-12-20T18:34:34;12.35;;;4.18;;
55813;SDS011;65494;42.818;0.404;2022-12-20T18:37:00;11.95;;;4.32;;
55813;SDS011;65494;42.818;0.404;2022-12-20T18:39:29;11.02;;;4.15;;
55813;SDS011;65494;42.818;0.404;2022-12-20T18:41:55;9.05;;;3.67;;
55813;SDS011;65494;42.818;0.404;2022-12-20T18:44:21;13.07;;;4.95;;
55813;SDS011;65494;42.818;0.404;2022-12-20T18:46:48;8.68;;;3.55;;
55813;SDS011;65494;42.818;0.404;2022-12-20T18:49:14;11.05;;;3.50;;
55813;SDS011;65494;42.818;0.404;2022-12-20T18:51:40;12.20;;;5.03;;
55813;SDS011;65494;42.818;0.404;2022-12-20T18:54:08;11.80;;;3.53;;
55813;SDS011;65494;42.818;0.404;2022-12-20T18:56:36;18.73;;;9.70;;
55813;SDS011;65494;42.818;0.404;2022-12-20T18:59:10;27.63;;;14.32;;
55813;SDS011;65494;42.818;0.404;2022-12-20T19:01:37;9.55;;;4.10;;
55813;SDS011;65494;42.818;0.404;2022-12-20T19:04:03;10.05;;;4.63;;
55813;SDS011;65494;42.818;0.404;2022-12-20T19:06:39;10.48;;;4.88;;
55813;SDS011;65494;42.818;0.404;2022-12-20T19:09:07;8.38;;;3.53;;
55813;SDS011;65494;42.818;0.404;2022-12-20T19:11:42;10.35;;;4.90;;
55813;SDS011;65494;42.818;0.404;2022-12-20T19:14:09;52.90;;;26.83;;
55813;SDS011;65494;42.818;0.404;2022-12-20T19:16:37;81.10;;;37.05;;
55813;SDS011;65494;42.818;0.404;2022-12-20T19:19:04;72.47;;;35.28;;
55813;SDS011;65494;42.818;0.404;2022-12-20T19:21:33;29.92;;;14.45;;
55813;SDS011;65494;42.818;0.404;2022-12-20T19:24:00;11.63;;;5.13;;
55813;SDS011;65494;42.818;0.404;2022-12-20T19:26:29;12.15;;;4.60;;
55813;SDS011;65494;42.818;0.404;2022-12-20T19:28:55;36.75;;;14.43;;
55813;SDS011;65494;42.818;0.404;2022-12-20T19:31:23;12.85;;;5.82;;
55813;SDS011;65494;42.818;0.404;2022-12-20T19:33:50;16.98;;;6.82;;
55813;SDS011;65494;42.818;0.404;2022-12-20T19:36:18;6.95;;;3.10;;
55813;SDS011;65494;42.818;0.404;2022-12-20T19:38:48;9.38;;;3.40;;
55813;SDS011;65494;42.818;0.404;2022-12-20T19:41:15;9.00;;;3.85;;
55813;SDS011;65494;42.818;0.404;2022-12-20T19:43:41;7.00;;;3.40;;
55813;SDS011;65494;42.818;0.404;2022-12-20T19:46:08;12.77;;;5.88;;
55813;SDS011;65494;42.818;0.404;2022-12-20T19:48:34;12.75;;;4.88;;
55813;SDS011;65494;42.818;0.404;2022-12-20T19:51:04;11.90;;;4.40;;
55813;SDS011;65494;42.818;0.404;2022-12-20T19:53:38;11.75;;;4.85;;
55813;SDS011;65494;42.818;0.404;2022-12-20T19:56:04;15.88;;;7.05;;
55813;SDS011;65494;42.818;0.404;2022-12-20T19:58:32;15.55;;;6.43;;
55813;SDS011;65494;42.818;0.404;2022-12-20T20:00:59;13.90;;;6.18;;
55813;SDS011;65494;42.818;0.404;2022-12-20T20:03:25;14.40;;;5.68;;
55813;SDS011;65494;42.818;0.404;2022-12-20T20:05:51;11.27;;;5.00;;
55813;SDS011;65494;42.818;0.404;2022-12-20T20:08:19;13.00;;;4.97;;
55813;SDS011;65494;42.818;0.404;2022-12-20T20:10:45;12.60;;;4.82;;
55813;SDS011;65494;42.818;0.404;2022-12-20T20:13:16;13.43;;;4.90;;
55813;SDS011;65494;42.818;0.404;2022-12-20T20:15:47;8.05;;;3.15;;
55813;SDS011;65494;42.818;0.404;2022-12-20T20:18:14;7.30;;;2.90;;
55813;SDS011;65494;42.818;0.404;2022-12-20T20:20:40;9.32;;;3.72;;
55813;SDS011;65494;42.818;0.404;2022-12-20T20:23:06;9.13;;;3.35;;
55813;SDS011;65494;42.818;0.404;2022-12-20T20:25:32;8.85;;;3.70;;
55813;SDS011;65494;42.818;0.404;2022-12-20T20:28:00;11.48;;;4.55;;
55813;SDS011;65494;42.818;0.404;2022-12-20T20:30:26;12.27;;;5.28;;
55813;SDS011;65494;42.818;0.404;2022-12-20T20:32:52;17.27;;;6.65;;
55813;SDS011;65494;42.818;0.404;2022-12-20T20:35:18;4.28;;;2.08;;
55813;SDS011;65494;42.818;0.404;2022-12-20T20:37:44;3.13;;;1.00;;
55813;SDS011;65494;42.818;0.404;2022-12-20T20:40:11;9.98;;;3.58;;
55813;SDS011;65494;42.818;0.404;2022-12-20T20:42:40;8.57;;;3.70;;
55813;SDS011;65494;42.818;0.404;2022-12-20T20:45:06;12.82;;;3.85;;
55813;SDS011;65494;42.818;0.404;2022-12-20T20:47:32;18.92;;;8.85;;
55813;SDS011;65494;42.818;0.404;2022-12-20T20:49:59;374.98;;;143.70;;
55813;SDS011;65494;42.818;0.404;2022-12-20T20:52:25;217.52;;;95.18;;
55813;SDS011;65494;42.818;0.404;2022-12-20T20:54:51;155.07;;;71.13;;
55813;SDS011;65494;42.818;0.404;2022-12-20T20:57:21;39.92;;;22.45;;
55813;SDS011;65494;42.818;0.404;2022-12-20T20:59:47;34.47;;;15.18;;
55813;SDS011;65494;42.818;0.404;2022-12-20T21:02:33;36.13;;;19.40;;
55813;SDS011;65494;42.818;0.404;2022-12-20T21:05:00;25.23;;;12.70;;
55813;SDS011;65494;42.818;0.404;2022-12-20T21:07:26;15.50;;;7.25;;
55813;SDS011;65494;42.818;0.404;2022-12-20T21:09:52;19.08;;;8.50;;
55813;SDS011;65494;42.818;0.404;2022-12-20T21:12:21;26.38;;;10.75;;
55813;SDS011;65494;42.818;0.404;2022-12-20T21:15:14;9.35;;;2.58;;
55813;SDS011;65494;42.818;0.404;2022-12-20T21:17:40;5.10;;;2.50;;
55813;SDS011;65494;42.818;0.404;2022-12-20T21:20:07;34.65;;;16.38;;
55813;SDS011;65494;42.818;0.404;2022-12-20T21:22:34;18.60;;;9.23;;
55813;SDS011;65494;42.818;0.404;2022-12-20T21:25:00;12.25;;;5.00;;
55813;SDS011;65494;42.818;0.404;2022-12-20T21:27:26;15.43;;;5.75;;
55813;SDS011;65494;42.818;0.404;2022-12-20T21:29:53;12.98;;;4.50;;
55813;SDS011;65494;42.818;0.404;2022-12-20T21:32:53;8.60;;;3.72;;
55813;SDS011;65494;42.818;0.404;2022-12-20T21:35:38;13.00;;;5.60;;
55813;SDS011;65494;42.818;0.404;2022-12-20T21:38:05;8.02;;;4.00;;
55813;SDS011;65494;42.818;0.404;2022-12-20T21:40:35;89.63;;;41.30;;
55813;SDS011;65494;42.818;0.404;2022-12-20T21:43:01;6.25;;;2.97;;
55813;SDS011;65494;42.818;0.404;2022-12-20T21:45:27;4.43;;;2.22;;
55813;SDS011;65494;42.818;0.404;2022-12-20T21:47:54;7.45;;;2.47;;
55813;SDS011;65494;42.818;0.404;2022-12-20T21:50:21;4.30;;;2.10;;
55813;SDS011;65494;42.818;0.404;2022-12-20T21:52:47;6.07;;;2.35;;
55813;SDS011;65494;42.818;0.404;2022-12-20T21:55:13;9.85;;;3.28;;
55813;SDS011;65494;42.818;0.404;2022-12-20T21:57:58;7.75;;;3.17;;
55813;SDS011;65494;42.818;0.404;2022-12-20T22:00:43;13.73;;;5.17;;
55813;SDS011;65494;42.818;0.404;2022-12-20T22:03:55;19.02;;;8.45;;
55813;SDS011;65494;42.818;0.404;2022-12-20T22:06:26;6.75;;;2.47;;
55813;SDS011;65494;42.818;0.404;2022-12-20T22:08:52;3.22;;;1.40;;
55813;SDS011;65494;42.818;0.404;2022-12-20T22:11:18;5.35;;;2.58;;
55813;SDS011;65494;42.818;0.404;2022-12-20T22:14:09;8.23;;;2.65;;
55813;SDS011;65494;42.818;0.404;2022-12-20T22:16:54;4.80;;;1.90;;
55813;SDS011;65494;42.818;0.404;2022-12-20T22:19:21;5.43;;;2.20;;
55813;SDS011;65494;42.818;0.404;2022-12-20T22:21:47;8.55;;;3.70;;
55813;SDS011;65494;42.818;0.404;2022-12-20T22:24:13;9.30;;;4.25;;
55813;SDS011;65494;42.818;0.404;2022-12-20T22:26:39;5.47;;;2.15;;
55813;SDS011;65494;42.818;0.404;2022-12-20T22:32:32;5.18;;;2.25;;
55813;SDS011;65494;42.818;0.404;2022-12-20T22:35:18;3.67;;;1.67;;
55813;SDS011;65494;42.818;0.404;2022-12-20T22:38:04;6.07;;;1.63;;
55813;SDS011;65494;42.818;0.404;2022-12-20T22:43:51;5.28;;;1.92;;
55813;SDS011;65494;42.818;0.404;2022-12-20T22:46:37;6.05;;;2.05;;
55813;SDS011;65494;42.818;0.404;2022-12-20T22:49:03;4.97;;;1.95;;
55813;SDS011;65494;42.818;0.404;2022-12-20T22:51:30;5.65;;;2.40;;
55813;SDS011;65494;42.818;0.404;2022-12-20T22:53:59;5.88;;;2.22;;
55813;SDS011;65494;42.818;0.404;2022-12-20T22:56:25;6.35;;;2.00;;
55813;SDS011;65494;42.818;0.404;2022-12-20T22:58:51;5.05;;;1.90;;
55813;SDS011;65494;42.818;0.404;2022-12-20T23:01:18;4.30;;;1.95;;
55813;SDS011;65494;42.818;0.404;2022-12-20T23:03:45;2.70;;;1.52;;
55813;SDS011;65494;42.818;0.404;2022-12-20T23:06:13;5.28;;;1.70;;
55813;SDS011;65494;42.818;0.404;2022-12-20T23:08:40;3.55;;;1.38;;
55813;SDS011;65494;42.818;0.404;2022-12-20T23:11:13;7.32;;;2.85;;
55813;SDS011;65494;42.818;0.404;2022-12-20T23:14:15;4.88;;;2.45;;
55813;SDS011;65494;42.818;0.404;2022-12-20T23:17:18;8.27;;;2.70;;
55813;SDS011;65494;42.818;0.404;2022-12-20T23:19:58;5.30;;;2.15;;
55813;SDS011;65494;42.818;0.404;2022-12-20T23:22:43;6.57;;;2.30;;
55813;SDS011;65494;42.818;0.404;2022-12-20T23:25:11;5.30;;;2.10;;
55813;SDS011;65494;42.818;0.404;2022-12-20T23:27:40;5.32;;;1.90;;
55813;SDS011;65494;42.818;0.404;2022-12-20T23:30:09;4.28;;;1.73;;
55813;SDS011;65494;42.818;0.404;2022-12-20T23:32:36;7.78;;;2.90;;
55813;SDS011;65494;42.818;0.404;2022-12-20T23:35:02;7.00;;;2.75;;
55813;SDS011;65494;42.818;0.404;2022-12-20T23:37:29;6.63;;;2.83;;
55813;SDS011;65494;42.818;0.404;2022-12-20T23:39:55;5.90;;;2.33;;
55813;SDS011;65494;42.818;0.404;2022-12-20T23:42:26;7.03;;;2.20;;
55813;SDS011;65494;42.818;0.404;2022-12-20T23:44:53;5.13;;;2.17;;
55813;SDS011;65494;42.818;0.404;2022-12-20T23:47:19;5.75;;;1.80;;
55813;SDS011;65494;42.818;0.404;2022-12-20T23:50:04;6.38;;;2.00;;
55813;SDS011;65494;42.818;0.404;2022-12-20T23:52:49;3.88;;;1.70;;
55813;SDS011;65494;42.818;0.404;2022-12-20T23:55:15;5.03;;;1.75;;
55813;SDS011;65494;42.818;0.404;2022-12-20T23:57:41;5.68;;;1.98;;
